Time;durP1;ratioP1;P1;durP2;ratioP2;P2;SDS_P1;SDS_P2;PMS_P1;PMS_P2;Temp;Humidity;BMP_temperature;BMP_pressure;BME280_temperature;BME280_humidity;BME280_pressure;Samples;Min_cycle;Max_cycle;Signal;HPM_P1;HPM_P2
2020/12/24 00:00:34;;;;;;;51.25;17.27;;;;;;;0.02;100.00;99476.88;1738876;82;21152;-72
2020/12/24 00:03:01;;;;;;;57.10;20.02;;;;;;;0.03;100.00;99480.39;1738783;82;21374;-72
2020/12/24 00:05:29;;;;;;;53.87;18.85;;;;;;;0.01;100.00;99483.34;1738675;82;20941;-71
2020/12/24 00:07:56;;;;;;;55.83;18.80;;;;;;;0.00;100.00;99476.34;1738868;82;21048;-71
2020/12/24 00:10:23;;;;;;;50.98;18.92;;;;;;;0.02;100.00;99475.52;1738715;82;21001;-71
2020/12/24 00:12:51;;;;;;;48.33;18.80;;;;;;;0.03;100.00;99470.94;1738803;82;21026;-71
2020/12/24 00:15:19;;;;;;;49.70;18.70;;;;;;;0.03;100.00;99479.04;1738770;82;21390;-71
2020/12/24 00:17:46;;;;;;;45.20;18.07;;;;;;;0.04;100.00;99480.14;1738719;82;20946;-71
2020/12/24 00:20:14;;;;;;;55.05;19.27;;;;;;;0.04;100.00;99482.02;1738742;82;20993;-71
2020/12/24 00:22:42;;;;;;;50.65;18.10;;;;;;;0.04;100.00;99483.37;1738681;82;21033;-71
2020/12/24 00:25:10;;;;;;;50.80;18.37;;;;;;;0.04;100.00;99482.02;1738759;82;20906;-71
2020/12/24 00:27:37;;;;;;;62.13;18.57;;;;;;;0.03;100.00;99476.34;1736104;82;21440;-71
2020/12/24 00:30:05;;;;;;;54.53;17.07;;;;;;;0.03;100.00;99479.04;1735378;82;21005;-71
2020/12/24 00:32:32;;;;;;;54.42;19.00;;;;;;;0.04;100.00;99480.67;1735418;82;21013;-73
2020/12/24 00:35:00;;;;;;;52.85;19.57;;;;;;;0.05;100.00;99486.36;1735340;82;21053;-73
2020/12/24 00:37:27;;;;;;;55.03;19.75;;;;;;;0.06;100.00;99484.76;1735275;82;21199;-72
2020/12/24 00:39:54;;;;;;;44.53;15.88;;;;;;;0.07;100.00;99483.69;1735344;81;21563;-72
2020/12/24 00:42:22;;;;;;;56.25;18.90;;;;;;;0.07;100.00;99490.97;1735245;82;20985;-72
2020/12/24 00:44:50;;;;;;;50.67;18.52;;;;;;;0.05;100.00;99486.36;1735307;82;20938;-72
2020/12/24 00:47:17;;;;;;;50.65;18.67;;;;;;;0.05;100.00;99494.45;1735289;82;20962;-72
2020/12/24 00:49:44;;;;;;;55.43;19.92;;;;;;;0.03;100.00;99498.75;1735428;82;21623;-72
2020/12/24 00:52:13;;;;;;;53.83;18.73;;;;;;;0.03;100.00;99495.23;1735346;82;21194;-72
2020/12/24 00:54:41;;;;;;;57.62;18.55;;;;;;;0.04;100.00;99483.37;1708169;82;21167;-72
2020/12/24 00:57:09;;;;;;;53.80;18.20;;;;;;;0.03;100.00;99483.09;1735321;82;21084;-72
2020/12/24 00:59:37;;;;;;;63.52;19.37;;;;;;;0.02;100.00;99484.16;1735427;82;21472;-72
2020/12/24 01:02:04;;;;;;;54.95;18.42;;;;;;;0.02;100.00;99494.95;1735353;82;21113;-72
2020/12/24 01:04:32;;;;;;;51.98;19.67;;;;;;;0.02;100.00;99492.25;1735276;82;21691;-72
2020/12/24 01:06:59;;;;;;;62.95;19.10;;;;;;;0.02;100.00;99497.64;1735267;82;20922;-72
2020/12/24 01:09:26;;;;;;;47.93;17.45;;;;;;;0.00;100.00;99497.36;1735331;82;20934;-72
2020/12/24 01:11:54;;;;;;;57.20;19.85;;;;;;;0.00;100.00;99491.97;1735306;82;21567;-72
2020/12/24 01:14:21;;;;;;;53.55;19.05;;;;;;;0.00;100.00;99489.27;1735423;82;21607;-72
2020/12/24 01:16:49;;;;;;;54.27;18.05;;;;;;;0.01;100.00;99487.38;1735281;82;21870;-72
2020/12/24 01:19:16;;;;;;;63.00;19.95;;;;;;;0.02;100.00;99491.72;1735241;82;21025;-71
2020/12/24 01:21:47;;;;;;;63.50;19.00;;;;;;;0.01;100.00;99488.73;1735318;81;21009;-71
2020/12/24 01:24:14;;;;;;;51.15;17.48;;;;;;;0.01;100.00;99483.34;1735551;82;21163;-71
2020/12/24 01:26:49;;;;;;;72.32;18.98;;;;;;;-0.01;100.00;99486.31;1735906;82;21132;-72
2020/12/24 01:29:16;;;;;;;55.58;19.27;;;;;;;-0.01;100.00;99482.27;1715743;82;21394;-73
2020/12/24 01:31:48;;;;;;;63.28;20.72;;;;;;;-0.01;100.00;99479.56;1738763;82;21619;-73
2020/12/24 01:34:19;;;;;;;56.13;18.12;;;;;;;-0.01;100.00;99479.56;1738855;82;20886;-73
2020/12/24 01:36:47;;;;;;;66.65;21.15;;;;;;;-0.01;100.00;99486.31;1738681;82;21005;-73
2020/12/24 01:39:14;;;;;;;54.58;19.17;;;;;;;-0.02;100.00;99481.98;1738739;82;20998;-73
2020/12/24 01:41:42;;;;;;;64.12;19.20;;;;;;;-0.01;100.00;99489.55;1715822;82;21365;-73
2020/12/24 01:44:10;;;;;;;64.07;20.60;;;;;;;0.00;100.00;99485.22;1738701;82;21160;-73
2020/12/24 01:46:39;;;;;;;52.33;18.32;;;;;;;0.00;100.00;99477.69;1738721;82;20938;-73
2020/12/24 01:49:09;;;;;;;72.17;21.60;;;;;;;0.00;100.00;99478.47;1737386;82;20930;-73
2020/12/24 01:51:36;;;;;;;68.65;22.13;;;;;;;0.01;100.00;99472.54;1738736;82;20918;-73
2020/12/24 01:54:04;;;;;;;68.40;20.62;;;;;;;0.00;100.00;99473.07;1738715;82;21386;-73
2020/12/24 01:56:31;;;;;;;76.28;21.12;;;;;;;0.03;100.00;99471.76;1738607;82;21033;-74
2020/12/24 01:59:00;;;;;;;62.17;20.52;;;;;;;0.04;100.00;99466.64;1738780;82;21473;-74
2020/12/24 02:01:28;;;;;;;62.40;19.85;;;;;;;0.05;100.00;99464.77;1738658;82;21172;-74
2020/12/24 02:03:55;;;;;;;62.20;21.12;;;;;;;0.07;100.00;99467.50;1738712;82;21112;-74
2020/12/24 02:06:23;;;;;;;52.85;17.70;;;;;;;0.07;100.00;99468.84;1738674;82;21391;-74
2020/12/24 02:08:53;;;;;;;53.55;18.73;;;;;;;0.04;100.00;99457.20;1737714;82;21163;-74
2020/12/24 02:11:21;;;;;;;54.83;18.15;;;;;;;0.02;100.00;99451.77;1738688;82;21162;-74
2020/12/24 02:13:48;;;;;;;55.58;20.52;;;;;;;0.02;100.00;99453.11;1738658;82;20950;-74
2020/12/24 02:16:15;;;;;;;50.52;17.30;;;;;;;-0.01;100.00;99447.18;1738712;82;20965;-73
2020/12/24 02:18:43;;;;;;;60.52;18.90;;;;;;;-0.01;100.00;99447.71;1738688;82;21378;-73
2020/12/24 02:21:10;;;;;;;53.70;18.90;;;;;;;-0.02;100.00;99449.59;1738658;82;20953;-73
2020/12/24 02:23:37;;;;;;;61.10;19.10;;;;;;;-0.01;100.00;99453.93;1738739;82;20950;-71
2020/12/24 02:26:06;;;;;;;55.63;18.82;;;;;;;-0.02;100.00;99448.78;1738612;82;21481;-71
2020/12/24 02:28:33;;;;;;;68.75;21.23;;;;;;;-0.02;100.00;99452.83;1735651;82;21101;-71
2020/12/24 02:31:01;;;;;;;52.67;19.32;;;;;;;-0.02;100.00;99450.95;1735292;82;21195;-71
2020/12/24 02:33:29;;;;;;;48.95;16.30;;;;;;;-0.01;100.00;99456.62;1735247;81;20946;-73
2020/12/24 02:35:57;;;;;;;50.90;19.15;;;;;;;0.00;100.00;99462.28;1735226;82;20930;-72
2020/12/24 02:38:24;;;;;;;60.38;19.90;;;;;;;-0.01;100.00;99470.12;1735420;82;21115;-73
2020/12/24 02:40:52;;;;;;;90.47;23.67;;;;;;;-0.01;100.00;99473.35;1735440;82;21124;-73
2020/12/24 02:43:20;;;;;;;64.42;22.37;;;;;;;-0.01;100.00;99471.47;1735411;82;21192;-73
2020/12/24 02:45:47;;;;;;;51.15;18.70;;;;;;;-0.01;100.00;99460.67;1735361;82;20950;-73
2020/12/24 02:48:15;;;;;;;64.77;18.50;;;;;;;0.00;100.00;99463.62;1735434;81;21560;-72
2020/12/24 02:50:42;;;;;;;55.23;18.80;;;;;;;-0.01;100.00;99470.66;1735438;82;21135;-70
2020/12/24 02:53:10;;;;;;;61.73;21.02;;;;;;;0.01;100.00;99457.70;1735534;82;21080;-71
2020/12/24 02:55:37;;;;;;;59.55;20.45;;;;;;;0.02;100.00;99457.16;1735415;82;21367;-71
2020/12/24 02:58:04;;;;;;;53.70;18.95;;;;;;;0.03;100.00;99456.91;1735365;82;21127;-71
2020/12/24 03:00:32;;;;;;;62.45;19.80;;;;;;;0.03;100.00;99452.05;1735360;82;20985;-71
2020/12/24 03:03:00;;;;;;;57.50;20.65;;;;;;;0.03;100.00;99463.66;1735466;82;21064;-72
2020/12/24 03:05:27;;;;;;;84.50;29.18;;;;;;;0.04;100.00;99471.23;1735361;82;21069;-71
2020/12/24 03:07:54;;;;;;;76.80;25.37;;;;;;;0.05;100.00;99463.41;1735422;82;21453;-71
2020/12/24 03:10:22;;;;;;;52.98;18.85;;;;;;;0.05;100.00;99454.78;1735346;82;21151;-72
2020/12/24 03:12:49;;;;;;;51.92;19.02;;;;;;;0.07;100.00;99445.09;1735415;82;20930;-70
2020/12/24 03:15:17;;;;;;;44.98;17.10;;;;;;;0.04;100.00;99441.00;1735395;82;20919;-71
2020/12/24 03:17:44;;;;;;;47.85;19.27;;;;;;;0.03;100.00;99448.00;1735379;82;21112;-71
2020/12/24 03:20:13;;;;;;;51.05;18.02;;;;;;;0.02;100.00;99451.23;1734888;82;21220;-71
2020/12/24 03:22:41;;;;;;;58.30;18.32;;;;;;;0.02;100.00;99452.58;1735343;81;21155;-71
2020/12/24 03:25:08;;;;;;;51.18;18.23;;;;;;;0.02;100.00;99449.06;1735366;81;20922;-72
2020/12/24 03:27:37;;;;;;;49.48;18.30;;;;;;;0.02;100.00;99449.88;1735216;82;21053;-72
2020/12/24 03:30:06;;;;;;;54.13;17.35;;;;;;;0.05;100.00;99453.97;1735392;82;21146;-72
2020/12/24 03:32:34;;;;;;;49.33;16.77;;;;;;;0.04;100.00;99447.75;1745743;81;21204;-72
2020/12/24 03:35:03;;;;;;;51.25;16.67;;;;;;;0.04;100.00;99448.28;1735344;82;21175;-72
2020/12/24 03:37:30;;;;;;;44.95;16.95;;;;;;;0.03;100.00;99449.34;1735371;82;20934;-72
2020/12/24 03:39:58;;;;;;;59.60;18.87;;;;;;;0.02;100.00;99437.73;1735383;82;20934;-73
2020/12/24 03:42:25;;;;;;;43.70;17.17;;;;;;;0.02;100.00;99439.63;1735414;82;21140;-71
2020/12/24 03:44:52;;;;;;;47.75;18.02;;;;;;;0.03;100.00;99441.25;1757824;81;21391;-71
2020/12/24 03:47:20;;;;;;;49.15;16.67;;;;;;;0.05;100.00;99436.42;1765717;81;20950;-74
2020/12/24 03:49:47;;;;;;;62.05;18.70;;;;;;;0.05;100.00;99431.84;1765749;81;20883;-72
2020/12/24 03:52:15;;;;;;;51.75;19.95;;;;;;;0.06;100.00;99428.08;1762780;81;21555;-72
2020/12/24 03:54:42;;;;;;;72.15;27.82;;;;;;;0.08;100.00;99425.12;1735381;82;21100;-73
2020/12/24 03:57:10;;;;;;;79.82;31.45;;;;;;;0.08;100.00;99417.03;1708372;82;21419;-72
2020/12/24 03:59:37;;;;;;;70.65;24.20;;;;;;;0.07;100.00;99412.70;1735306;82;21244;-72
2020/12/24 04:02:05;;;;;;;47.60;18.70;;;;;;;0.09;100.00;99403.81;1735412;82;20994;-73
2020/12/24 04:04:32;;;;;;;45.50;16.40;;;;;;;0.08;100.00;99407.58;1735293;82;21148;-73
2020/12/24 04:07:00;;;;;;;53.30;23.55;;;;;;;0.06;100.00;99409.72;1735358;82;20965;-74
2020/12/24 04:09:27;;;;;;;65.05;28.17;;;;;;;0.00;100.00;99401.55;1735388;82;21197;-73
2020/12/24 04:11:55;;;;;;;78.52;28.35;;;;;;;-0.01;100.00;99401.83;1735211;82;21013;-73
2020/12/24 04:14:22;;;;;;;52.98;22.77;;;;;;;-0.04;100.00;99403.16;1735304;82;20938;-73
2020/12/24 04:16:49;;;;;;;44.70;16.90;;;;;;;-0.04;100.00;99411.25;1735429;82;20930;-73
2020/12/24 04:19:17;;;;;;;55.95;18.37;;;;;;;-0.05;100.00;99403.40;1735441;82;21056;-73
2020/12/24 04:21:44;;;;;;;49.88;18.10;;;;;;;-0.05;100.00;99412.84;1739456;81;21478;-73
2020/12/24 04:24:12;;;;;;;53.05;19.45;;;;;;;-0.05;100.00;99415.02;1758597;81;21049;-73
2020/12/24 04:26:39;;;;;;;59.58;20.17;;;;;;;-0.05;100.00;99416.36;1735265;82;21013;-74
2020/12/24 04:29:07;;;;;;;50.75;20.68;;;;;;;-0.03;100.00;99420.97;1737931;82;21045;-73
2020/12/24 04:31:42;;;;;;;45.28;18.75;;;;;;;-0.01;100.00;99415.33;1738868;82;21104;-75
2020/12/24 04:34:10;;;;;;;52.78;18.55;;;;;;;-0.03;100.00;99409.36;1738815;82;21820;-73
2020/12/24 04:36:38;;;;;;;42.53;16.10;;;;;;;-0.02;100.00;99398.85;1738671;82;20917;-71
2020/12/24 04:39:05;;;;;;;34.25;14.80;;;;;;;-0.03;100.00;99393.98;1745481;81;20989;-72
2020/12/24 04:41:34;;;;;;;53.20;19.37;;;;;;;-0.04;100.00;99395.59;1754259;81;21057;-72
2020/12/24 04:44:02;;;;;;;41.13;16.52;;;;;;;-0.05;100.00;99384.51;1767748;81;21152;-72
2020/12/24 04:46:29;;;;;;;44.88;16.23;;;;;;;-0.07;100.00;99385.29;1768510;79;21369;-72
2020/12/24 04:48:58;;;;;;;40.48;15.28;;;;;;;-0.07;100.00;99396.91;1768058;81;21029;-73
2020/12/24 04:51:25;;;;;;;41.83;15.93;;;;;;;-0.07;100.00;99396.09;1767983;81;21191;-73
2020/12/24 04:53:53;;;;;;;45.70;16.62;;;;;;;-0.06;100.00;99395.84;1767972;81;21187;-73
2020/12/24 04:56:20;;;;;;;48.60;17.25;;;;;;;-0.05;100.00;99400.17;1768119;81;21179;-72
2020/12/24 04:58:48;;;;;;;42.27;14.80;;;;;;;-0.06;100.00;99397.19;1769243;81;21376;-72
2020/12/24 05:01:17;;;;;;;33.40;14.45;;;;;;;-0.06;100.00;99403.94;1769129;81;20993;-73
2020/12/24 05:03:44;;;;;;;39.78;17.02;;;;;;;-0.08;100.00;99400.67;1769330;79;21547;-71
2020/12/24 05:06:18;;;;;;;44.38;16.97;;;;;;;-0.10;100.00;99402.80;1769131;81;21215;-73
2020/12/24 05:08:59;;;;;;;33.67;13.18;;;;;;;-0.10;100.00;99410.08;1769309;81;20950;-73
2020/12/24 05:11:33;;;;;;;33.38;12.90;;;;;;;-0.12;100.00;99403.58;1769345;80;21190;-73
2020/12/24 05:14:21;;;;;;;34.08;12.53;;;;;;;-0.13;100.00;99403.30;1769151;81;20930;-73
2020/12/24 05:17:03;;;;;;;34.08;13.95;;;;;;;-0.13;100.00;99404.64;1769284;79;20894;-74
2020/12/24 05:22:21;;;;;;;31.23;13.68;;;;;;;-0.08;100.00;99403.89;1889931;76;22662;-75
2020/12/24 05:24:49;;;;;;;44.27;18.35;;;;;;;-0.13;100.00;99404.64;1861038;77;21113;-80
2020/12/24 05:27:20;;;;;;;65.42;22.48;;;;;;;-0.15;100.00;99410.83;1860948;77;21649;-75
2020/12/24 05:29:51;;;;;;;58.48;21.73;;;;;;;-0.14;100.00;99404.89;1828139;77;21035;-77
2020/12/24 05:32:28;;;;;;;52.58;20.08;;;;;;;-0.15;100.00;99401.38;1861031;77;21034;-79
2020/12/24 05:35:10;;;;;;;44.10;18.32;;;;;;;-0.15;100.00;99398.68;1861033;77;20924;-76
2020/12/24 05:37:38;;;;;;;46.58;17.15;;;;;;;-0.15;100.00;99391.94;1844100;77;21565;-76
2020/12/24 05:40:22;;;;;;;33.25;13.50;;;;;;;-0.17;100.00;99385.16;1827272;78;21258;-78
2020/12/24 05:42:53;;;;;;;29.80;12.70;;;;;;;-0.21;100.00;99379.97;1825730;78;20987;-75
2020/12/24 05:45:32;;;;;;;29.82;11.53;;;;;;;-0.25;100.00;99376.95;1827372;78;20971;-89
2020/12/24 05:48:12;;;;;;;47.80;16.15;;;;;;;-0.27;100.00;99385.83;1827189;78;21117;-76
2020/12/24 05:50:42;;;;;;;31.80;12.40;;;;;;;-0.30;100.00;99378.23;1827404;78;21560;-79
2020/12/24 05:53:14;;;;;;;41.85;15.25;;;;;;;-0.29;100.00;99383.91;1827214;78;21364;-75
2020/12/24 05:55:42;;;;;;;42.95;16.20;;;;;;;-0.29;100.00;99384.45;1827342;78;21902;-76
2020/12/24 05:58:10;;;;;;;39.63;15.18;;;;;;;-0.28;100.00;99390.13;1827167;78;21085;-79
2020/12/24 06:00:40;;;;;;;31.75;13.55;;;;;;;-0.28;100.00;99384.20;1827258;78;20935;-76
2020/12/24 06:03:18;;;;;;;34.40;13.72;;;;;;;-0.27;100.00;99387.18;1826932;78;21030;-76
2020/12/24 06:06:04;;;;;;;30.52;11.78;;;;;;;-0.27;100.00;99387.18;1827054;78;21317;-75
2020/12/24 06:08:33;;;;;;;26.55;10.68;;;;;;;-0.26;100.00;99380.72;1827198;78;21006;-75
2020/12/24 06:11:08;;;;;;;31.90;11.73;;;;;;;-0.26;100.00;99379.38;1827335;78;20947;-75
2020/12/24 06:13:42;;;;;;;27.58;9.90;;;;;;;-0.26;100.00;99375.33;1827289;78;20923;-75
2020/12/24 06:16:11;;;;;;;36.95;11.65;;;;;;;-0.26;100.00;99371.28;1827309;78;20998;-76
2020/12/24 06:18:43;;;;;;;21.57;9.55;;;;;;;-0.25;100.00;99369.40;1827286;78;21358;-76
2020/12/24 06:21:16;;;;;;;29.15;10.78;;;;;;;-0.25;100.00;99366.70;1827845;78;21026;-76
2020/12/24 06:23:50;;;;;;;22.52;9.68;;;;;;;-0.28;100.00;99366.66;1830626;78;20935;-76
2020/12/24 06:26:20;;;;;;;29.00;11.18;;;;;;;-0.30;100.00;99372.84;1830546;78;21465;-76
2020/12/24 06:28:50;;;;;;;33.98;13.68;;;;;;;-0.31;100.00;99375.79;1830518;78;21026;-75
2020/12/24 06:31:18;;;;;;;31.68;14.73;;;;;;;-0.32;100.00;99368.23;1830452;78;21193;-77
2020/12/24 06:33:45;;;;;;;33.13;13.20;;;;;;;-0.32;100.00;99378.20;1829869;78;20947;-77
2020/12/24 06:36:36;;;;;;;32.25;13.58;;;;;;;-0.33;100.00;99369.30;1829817;78;20939;-77
2020/12/24 06:39:04;;;;;;;37.30;13.75;;;;;;;-0.32;100.00;99367.41;1829902;78;21030;-75
2020/12/24 06:41:37;;;;;;;29.77;12.58;;;;;;;-0.34;100.00;99367.13;1829815;78;20912;-74
2020/12/24 06:44:05;;;;;;;30.30;10.85;;;;;;;-0.36;100.00;99368.44;1829990;78;21454;-76
2020/12/24 06:46:57;;;;;;;33.85;12.93;;;;;;;-0.38;100.00;99363.30;1829806;78;20935;-77
2020/12/24 06:49:31;;;;;;;40.38;13.62;;;;;;;-0.41;100.00;99360.28;1829910;78;21513;-74
2020/12/24 06:51:59;;;;;;;33.48;11.73;;;;;;;-0.44;100.00;99362.13;1829875;78;20982;-74
2020/12/24 06:54:27;;;;;;;35.63;12.35;;;;;;;-0.45;100.00;99357.80;1829887;78;20872;-74
2020/12/24 06:57:22;;;;;;;51.28;18.45;;;;;;;-0.47;100.00;99358.05;1829825;78;21274;-74
2020/12/24 07:00:17;;;;;;;38.20;14.65;;;;;;;-0.46;100.00;99356.98;1829850;78;21018;-73
2020/12/24 07:02:47;;;;;;;37.25;15.25;;;;;;;-0.45;100.00;99351.05;1829826;78;20896;-73
2020/12/24 07:05:45;;;;;;;54.45;18.98;;;;;;;-0.45;100.00;99353.75;1829917;78;20931;-75
2020/12/24 07:08:37;;;;;;;75.10;27.73;;;;;;;-0.45;100.00;99345.66;1830017;78;21462;-75
2020/12/24 07:11:04;;;;;;;69.60;27.07;;;;;;;-0.46;100.00;99354.28;1829769;78;21615;-75
2020/12/24 07:13:39;;;;;;;51.23;21.62;;;;;;;-0.48;100.00;99362.33;1829821;78;20959;-75
2020/12/24 07:16:12;;;;;;;62.13;23.87;;;;;;;-0.50;100.00;99365.28;1829890;78;20884;-74
2020/12/24 07:18:40;;;;;;;57.25;20.17;;;;;;;-0.51;100.00;99369.57;1829830;78;20986;-74
2020/12/24 07:21:11;;;;;;;52.17;20.88;;;;;;;-0.53;100.00;99367.66;1829637;78;21149;-74
2020/12/24 07:23:40;;;;;;;44.10;18.17;;;;;;;-0.55;100.00;99376.52;1829808;78;21188;-73
2020/12/24 07:26:10;;;;;;;42.75;17.23;;;;;;;-0.54;100.00;99367.37;1829892;78;21584;-74
2020/12/24 07:28:39;;;;;;;42.60;17.10;;;;;;;-0.55;100.00;99372.47;1829844;78;20935;-74
2020/12/24 07:31:10;;;;;;;50.60;19.57;;;;;;;-0.56;100.00;99360.06;1829807;78;20919;-74
2020/12/24 07:33:45;;;;;;;65.92;25.45;;;;;;;-0.55;100.00;99350.38;1829891;78;21141;-72
2020/12/24 07:36:12;;;;;;;37.55;16.65;;;;;;;-0.49;100.00;99347.22;1829836;78;21300;-71
2020/12/24 07:38:39;;;;;;;32.95;14.38;;;;;;;-0.46;100.00;99337.28;1830017;77;21573;-72
2020/12/24 07:41:16;;;;;;;31.25;14.55;;;;;;;-0.45;100.00;99329.48;1800017;78;20920;-74
2020/12/24 07:43:43;;;;;;;34.20;14.40;;;;;;;-0.42;100.00;99337.07;1829806;78;20916;-74
2020/12/24 07:46:11;;;;;;;41.28;14.10;;;;;;;-0.38;100.00;99339.55;1829840;78;20999;-74
2020/12/24 07:48:38;;;;;;;57.88;29.25;;;;;;;-0.33;100.00;99340.97;1829877;78;22216;-73
2020/12/24 07:51:09;;;;;;;37.40;18.37;;;;;;;-0.30;100.00;99345.87;1829751;78;20916;-74
2020/12/24 07:53:36;;;;;;;36.83;15.50;;;;;;;-0.26;100.00;99338.91;1829851;78;21482;-74
2020/12/24 07:56:10;;;;;;;37.55;17.37;;;;;;;-0.23;100.00;99332.20;1829801;78;20883;-74
2020/12/24 07:58:39;;;;;;;43.58;17.00;;;;;;;-0.18;100.00;99333.61;1829868;78;21014;-74
2020/12/24 08:01:06;;;;;;;35.15;16.57;;;;;;;-0.12;100.00;99342.87;1829838;78;22241;-73
2020/12/24 08:03:34;;;;;;;41.77;17.23;;;;;;;-0.07;100.00;99346.16;1829729;78;20935;-73
2020/12/24 08:06:04;;;;;;;43.80;17.55;;;;;;;-0.03;100.00;99345.95;1829794;78;20994;-73
2020/12/24 08:08:37;;;;;;;35.28;16.27;;;;;;;-0.01;100.00;99339.77;1829877;78;20990;-74
2020/12/24 08:11:08;;;;;;;29.15;12.50;;;;;;;0.00;100.00;99339.48;1829844;78;20911;-73
2020/12/24 08:13:35;;;;;;;28.40;12.33;;;;;;;0.02;100.00;99341.11;1829783;78;22365;-73
2020/12/24 08:16:03;;;;;;;25.68;12.45;;;;;;;0.03;100.00;99341.39;1829834;78;21069;-74
2020/12/24 08:18:33;;;;;;;34.30;13.85;;;;;;;0.04;100.00;99341.67;1829770;78;20991;-74
2020/12/24 08:21:22;;;;;;;24.80;12.50;;;;;;;0.04;100.00;99352.47;1829337;78;20979;-72
2020/12/24 08:23:53;;;;;;;31.90;12.53;;;;;;;0.07;100.00;99348.73;1826709;78;21001;-72
2020/12/24 08:26:20;;;;;;;25.32;13.08;;;;;;;0.08;100.00;99346.86;1826596;78;21365;-72
2020/12/24 08:28:53;;;;;;;33.80;14.13;;;;;;;0.07;100.00;99345.22;1826601;78;21627;-74
2020/12/24 08:31:21;;;;;;;26.42;12.35;;;;;;;0.10;100.00;99348.77;1826631;78;21520;-74
2020/12/24 08:33:51;;;;;;;32.20;13.78;;;;;;;0.10;100.00;99340.14;1826574;78;21557;-74
2020/12/24 08:36:22;;;;;;;29.80;14.73;;;;;;;0.08;100.00;99332.01;1826702;78;21565;-74
2020/12/24 08:38:50;;;;;;;48.15;20.48;;;;;;;0.07;100.00;99331.73;1826636;77;22226;-75
2020/12/24 08:41:22;;;;;;;36.35;17.50;;;;;;;0.08;100.00;99330.13;1826509;78;20935;-75
2020/12/24 08:43:53;;;;;;;37.33;16.62;;;;;;;0.10;100.00;99321.77;1826610;78;20976;-74
2020/12/24 08:46:22;;;;;;;27.40;13.30;;;;;;;0.13;100.00;99315.87;1826605;78;20983;-75
2020/12/24 08:48:49;;;;;;;29.37;13.75;;;;;;;0.14;100.00;99310.22;1826559;78;20939;-74
2020/12/24 08:51:18;;;;;;;38.38;16.05;;;;;;;0.12;100.00;99306.14;1826646;78;21354;-74
2020/12/24 08:53:49;;;;;;;38.65;18.90;;;;;;;0.10;100.00;99300.18;1825208;78;21003;-74
2020/12/24 08:56:17;;;;;;;40.52;16.70;;;;;;;0.11;100.00;99299.93;1826645;78;21431;-74
2020/12/24 08:58:53;;;;;;;35.17;16.07;;;;;;;0.15;100.00;99305.10;1826561;78;20936;-75
2020/12/24 09:01:22;;;;;;;45.48;19.85;;;;;;;0.16;100.00;99289.72;1826547;78;20987;-75
2020/12/24 09:03:50;;;;;;;39.40;18.25;;;;;;;0.15;100.00;99292.95;1826645;78;21324;-74
2020/12/24 09:06:18;;;;;;;35.92;17.07;;;;;;;0.15;100.00;99285.39;1826469;78;20974;-73
2020/12/24 09:08:49;;;;;;;40.70;17.48;;;;;;;0.13;100.00;99280.25;1826655;78;21464;-74
2020/12/24 09:11:28;;;;;;;43.65;18.82;;;;;;;0.11;100.00;99282.92;1826800;78;21498;-74
2020/12/24 09:13:58;;;;;;;36.20;15.18;;;;;;;0.08;100.00;99277.49;1826587;78;20916;-74
2020/12/24 09:16:25;;;;;;;33.35;15.38;;;;;;;0.07;100.00;99278.56;1826631;78;21204;-74
2020/12/24 09:19:07;;;;;;;37.98;17.60;;;;;;;0.07;100.00;99269.11;1826518;78;20896;-74
2020/12/24 09:21:36;;;;;;;38.42;15.43;;;;;;;0.09;100.00;99268.86;1827078;78;21059;-73
2020/12/24 09:24:08;;;;;;;37.40;16.12;;;;;;;0.11;100.00;99269.42;1828822;78;21489;-73
2020/12/24 09:26:49;;;;;;;40.75;17.52;;;;;;;0.11;100.00;99260.79;1829790;78;20952;-73
2020/12/24 09:29:18;;;;;;;30.55;13.95;;;;;;;0.12;100.00;99253.51;1829771;78;21419;-73
2020/12/24 09:32:00;;;;;;;27.35;11.35;;;;;;;0.10;100.00;99234.05;1829806;78;21057;-75
2020/12/24 09:34:29;;;;;;;35.85;12.85;;;;;;;0.09;100.00;99239.17;1829758;78;21031;-73
2020/12/24 09:36:57;;;;;;;28.87;12.47;;;;;;;0.09;100.00;99237.82;1829629;77;21069;-73
2020/12/24 09:39:25;;;;;;;36.98;14.63;;;;;;;0.08;100.00;99228.09;1829839;78;21477;-74
2020/12/24 09:41:52;;;;;;;28.42;13.25;;;;;;;0.08;100.00;99234.84;1829704;78;21193;-74
2020/12/24 09:44:19;;;;;;;32.75;12.98;;;;;;;0.08;100.00;99225.39;1829682;78;20971;-74
2020/12/24 09:46:48;;;;;;;37.30;16.60;;;;;;;0.09;100.00;99227.84;1829723;78;20876;-73
2020/12/24 09:49:17;;;;;;;41.73;16.62;;;;;;;0.11;100.00;99219.48;1829790;78;21054;-75
2020/12/24 09:51:47;;;;;;;32.30;14.58;;;;;;;0.13;100.00;99215.47;1829804;78;20911;-73
2020/12/24 09:54:17;;;;;;;36.20;13.55;;;;;;;0.14;100.00;99205.48;1826654;78;21328;-73
2020/12/24 09:56:44;;;;;;;37.15;14.78;;;;;;;0.13;100.00;99198.45;1829687;78;21074;-73
2020/12/24 09:59:11;;;;;;;35.83;13.40;;;;;;;0.14;100.00;99195.50;1829797;78;20986;-73
2020/12/24 10:01:40;;;;;;;54.90;17.65;;;;;;;0.12;100.00;99196.29;1829657;78;20998;-73
2020/12/24 10:04:08;;;;;;;34.73;14.68;;;;;;;0.12;100.00;99190.89;1829231;78;21137;-77
2020/12/24 10:06:37;;;;;;;34.92;14.40;;;;;;;0.13;100.00;99190.36;1829715;78;21379;-79
2020/12/24 10:09:04;;;;;;;39.13;15.68;;;;;;;0.12;100.00;99186.03;1829768;78;20963;-69
2020/12/24 10:11:33;;;;;;;37.23;16.02;;;;;;;0.11;100.00;99183.05;1829861;78;20975;-74
2020/12/24 10:14:00;;;;;;;43.13;16.67;;;;;;;0.09;100.00;99184.66;1829772;78;21125;-72
2020/12/24 10:16:30;;;;;;;39.20;15.65;;;;;;;0.07;100.00;99183.28;1829779;78;20995;-75
2020/12/24 10:18:58;;;;;;;37.13;15.90;;;;;;;0.06;100.00;99182.47;1829845;78;21194;-74
2020/12/24 10:21:26;;;;;;;41.28;18.65;;;;;;;0.05;100.00;99171.92;1829705;78;21086;-73
2020/12/24 10:23:53;;;;;;;48.00;18.20;;;;;;;0.02;100.00;99167.86;1826606;78;20931;-73
2020/12/24 10:26:22;;;;;;;38.15;16.17;;;;;;;0.03;100.00;99165.97;1826520;78;21145;-74
2020/12/24 10:28:50;;;;;;;47.17;18.23;;;;;;;0.03;100.00;99167.32;1826681;78;21564;-86
2020/12/24 10:31:17;;;;;;;41.53;18.70;;;;;;;0.02;100.00;99161.64;1826705;78;22321;-73
2020/12/24 10:33:45;;;;;;;38.33;14.65;;;;;;;0.00;100.00;99163.28;1826550;78;21151;-75
2020/12/24 10:36:21;;;;;;;43.52;17.67;;;;;;;-0.01;100.00;99154.37;1826619;78;20987;-75
2020/12/24 10:38:49;;;;;;;42.17;18.05;;;;;;;-0.02;100.00;99156.79;1826657;77;21018;-73
2020/12/24 10:41:17;;;;;;;47.62;17.80;;;;;;;-0.04;100.00;99142.73;1826450;78;20936;-69
2020/12/24 10:43:44;;;;;;;43.87;18.50;;;;;;;-0.04;100.00;99133.83;1826667;78;21585;-70
2020/12/24 10:46:20;;;;;;;34.48;14.33;;;;;;;-0.05;100.00;99134.36;1826601;78;21102;-69
2020/12/24 10:48:46;;;;;;;34.73;15.03;;;;;;;-0.03;100.00;99130.88;1826773;78;21489;-69
2020/12/24 10:51:15;;;;;;;39.80;15.35;;;;;;;-0.02;100.00;99123.06;1826713;78;20935;-70
2020/12/24 10:53:42;;;;;;;42.88;17.30;;;;;;;-0.01;100.00;99115.78;1826657;78;21114;-71
2020/12/24 10:56:14;;;;;;;35.28;14.95;;;;;;;-0.01;100.00;99119.29;1794671;78;22331;-71
2020/12/24 10:58:42;;;;;;;32.93;14.20;;;;;;;-0.02;100.00;99104.16;1826517;78;21003;-71
2020/12/24 11:01:14;;;;;;;38.70;16.15;;;;;;;-0.02;100.00;99106.87;1826704;78;21530;-71
2020/12/24 11:03:41;;;;;;;29.65;12.23;;;;;;;-0.01;100.00;99104.44;1826782;78;21007;-71
2020/12/24 11:06:21;;;;;;;41.28;17.05;;;;;;;0.02;100.00;99099.03;1826665;78;21011;-70
2020/12/24 11:08:50;;;;;;;40.25;16.85;;;;;;;0.03;100.00;99093.92;1826675;78;22146;-70
2020/12/24 11:11:18;;;;;;;35.50;15.53;;;;;;;0.06;100.00;99091.23;1826588;78;20939;-70
2020/12/24 11:13:47;;;;;;;35.78;13.98;;;;;;;0.07;100.00;99088.82;1826712;78;20916;-71
2020/12/24 11:16:22;;;;;;;38.40;15.50;;;;;;;0.07;100.00;99085.58;1826634;78;20916;-71
2020/12/24 11:18:50;;;;;;;40.00;16.32;;;;;;;0.09;100.00;99082.09;1826649;78;21074;-70
2020/12/24 11:21:19;;;;;;;34.20;15.43;;;;;;;0.09;100.00;99078.58;1826611;78;21466;-70
2020/12/24 11:23:49;;;;;;;35.52;15.50;;;;;;;0.10;100.00;99078.86;1828943;78;20888;-71
2020/12/24 11:26:24;;;;;;;32.67;13.98;;;;;;;0.10;100.00;99076.16;1829851;78;20924;-70
2020/12/24 11:28:51;;;;;;;30.68;13.20;;;;;;;0.08;100.00;99072.37;1829928;78;20983;-70